sensor_id;sensor_type;location;lat;lon;timestamp;P1;durP1;ratioP1;P2;durP2;ratioP2
305;SDS011;137;48.578;9.180;2024-02-23T00:01:40;0.90;;;0.50;;
305;SDS011;137;48.578;9.180;2024-02-23T00:04:07;1.00;;;0.60;;
305;SDS011;137;48.578;9.180;2024-02-23T00:06:34;1.13;;;0.60;;
305;SDS011;137;48.578;9.180;2024-02-23T00:09:02;0.90;;;0.40;;
305;SDS011;137;48.578;9.180;2024-02-23T00:11:29;0.90;;;0.40;;
305;SDS011;137;48.578;9.180;2024-02-23T00:13:57;0.90;;;0.50;;
305;SDS011;137;48.578;9.180;2024-02-23T00:16:24;0.90;;;0.50;;
305;SDS011;137;48.578;9.180;2024-02-23T00:18:51;1.30;;;0.50;;
305;SDS011;137;48.578;9.180;2024-02-23T00:21:18;0.90;;;0.50;;
305;SDS011;137;48.578;9.180;2024-02-23T00:23:44;0.90;;;0.50;;
305;SDS011;137;48.578;9.180;2024-02-23T00:26:12;0.90;;;0.50;;
305;SDS011;137;48.578;9.180;2024-02-23T00:28:39;1.07;;;0.50;;
305;SDS011;137;48.578;9.180;2024-02-23T00:31:06;1.00;;;0.50;;
305;SDS011;137;48.578;9.180;2024-02-23T00:33:33;1.53;;;0.50;;
305;SDS011;137;48.578;9.180;2024-02-23T00:35:59;1.10;;;0.60;;
305;SDS011;137;48.578;9.180;2024-02-23T00:38:26;1.43;;;0.60;;
305;SDS011;137;48.578;9.180;2024-02-23T00:40:53;0.97;;;0.60;;
305;SDS011;137;48.578;9.180;2024-02-23T00:43:21;0.90;;;0.50;;
305;SDS011;137;48.578;9.180;2024-02-23T00:45:48;0.90;;;0.50;;
305;SDS011;137;48.578;9.180;2024-02-23T00:48:15;1.00;;;0.60;;
305;SDS011;137;48.578;9.180;2024-02-23T00:50:41;1.63;;;0.60;;
305;SDS011;137;48.578;9.180;2024-02-23T00:53:09;1.00;;;0.60;;
305;SDS011;137;48.578;9.180;2024-02-23T00:55:35;2.30;;;0.80;;
305;SDS011;137;48.578;9.180;2024-02-23T00:58:02;1.73;;;0.60;;
305;SDS011;137;48.578;9.180;2024-02-23T01:00:31;0.97;;;0.50;;
305;SDS011;137;48.578;9.180;2024-02-23T01:02:58;0.90;;;0.50;;
305;SDS011;137;48.578;9.180;2024-02-23T01:05:25;1.47;;;0.67;;
305;SDS011;137;48.578;9.180;2024-02-23T01:07:52;1.00;;;0.60;;
305;SDS011;137;48.578;9.180;2024-02-23T01:10:18;1.40;;;0.70;;
305;SDS011;137;48.578;9.180;2024-02-23T01:12:45;1.60;;;0.70;;
305;SDS011;137;48.578;9.180;2024-02-23T01:15:12;1.63;;;0.70;;
305;SDS011;137;48.578;9.180;2024-02-23T01:17:40;1.93;;;0.70;;
305;SDS011;137;48.578;9.180;2024-02-23T01:20:07;1.07;;;0.67;;
305;SDS011;137;48.578;9.180;2024-02-23T01:22:34;2.03;;;0.90;;
305;SDS011;137;48.578;9.180;2024-02-23T01:25:01;2.30;;;0.97;;
305;SDS011;137;48.578;9.180;2024-02-23T01:27:28;2.23;;;0.70;;
305;SDS011;137;48.578;9.180;2024-02-23T01:29:55;1.43;;;0.70;;
305;SDS011;137;48.578;9.180;2024-02-23T01:32:22;1.13;;;0.70;;
305;SDS011;137;48.578;9.180;2024-02-23T01:34:50;0.90;;;0.60;;
305;SDS011;137;48.578;9.180;2024-02-23T01:39:42;2.03;;;0.70;;
305;SDS011;137;48.578;9.180;2024-02-23T01:42:09;1.87;;;0.70;;
305;SDS011;137;48.578;9.180;2024-02-23T01:44:36;2.80;;;1.30;;
305;SDS011;137;48.578;9.180;2024-02-23T01:47:03;1.57;;;0.80;;
305;SDS011;137;48.578;9.180;2024-02-23T01:49:30;1.27;;;0.70;;
305;SDS011;137;48.578;9.180;2024-02-23T01:52:00;1.83;;;1.00;;
305;SDS011;137;48.578;9.180;2024-02-23T01:54:28;1.20;;;0.67;;
305;SDS011;137;48.578;9.180;2024-02-23T01:56:56;1.00;;;0.77;;
305;SDS011;137;48.578;9.180;2024-02-23T01:59:24;2.30;;;0.63;;
305;SDS011;137;48.578;9.180;2024-02-23T02:01:51;1.00;;;0.60;;
305;SDS011;137;48.578;9.180;2024-02-23T02:04:18;1.43;;;0.90;;
305;SDS011;137;48.578;9.180;2024-02-23T02:06:45;1.00;;;0.53;;
305;SDS011;137;48.578;9.180;2024-02-23T02:09:14;1.00;;;0.50;;
305;SDS011;137;48.578;9.180;2024-02-23T02:11:44;0.90;;;0.50;;
305;SDS011;137;48.578;9.180;2024-02-23T02:14:12;1.00;;;0.50;;
305;SDS011;137;48.578;9.180;2024-02-23T02:16:39;1.03;;;0.67;;
305;SDS011;137;48.578;9.180;2024-02-23T02:19:06;2.10;;;0.60;;
305;SDS011;137;48.578;9.180;2024-02-23T02:21:32;1.57;;;0.70;;
305;SDS011;137;48.578;9.180;2024-02-23T02:23:59;1.00;;;0.53;;
305;SDS011;137;48.578;9.180;2024-02-23T02:26:28;0.93;;;0.63;;
305;SDS011;137;48.578;9.180;2024-02-23T02:28:54;2.50;;;0.60;;
305;SDS011;137;48.578;9.180;2024-02-23T02:31:21;1.43;;;0.60;;
305;SDS011;137;48.578;9.180;2024-02-23T02:33:48;1.50;;;0.53;;
305;SDS011;137;48.578;9.180;2024-02-23T02:36:15;2.60;;;0.60;;
305;SDS011;137;48.578;9.180;2024-02-23T02:38:41;2.17;;;0.73;;
305;SDS011;137;48.578;9.180;2024-02-23T02:41:08;0.90;;;0.60;;
305;SDS011;137;48.578;9.180;2024-02-23T02:43:36;1.17;;;0.67;;
305;SDS011;137;48.578;9.180;2024-02-23T02:46:03;0.90;;;0.50;;
305;SDS011;137;48.578;9.180;2024-02-23T02:48:30;1.40;;;0.60;;
305;SDS011;137;48.578;9.180;2024-02-23T02:50:56;1.00;;;0.70;;
305;SDS011;137;48.578;9.180;2024-02-23T02:53:23;1.00;;;0.60;;
305;SDS011;137;48.578;9.180;2024-02-23T02:55:50;1.10;;;0.50;;
305;SDS011;137;48.578;9.180;2024-02-23T02:58:17;0.90;;;0.50;;
305;SDS011;137;48.578;9.180;2024-02-23T03:00:45;1.60;;;0.60;;
305;SDS011;137;48.578;9.180;2024-02-23T03:03:11;0.90;;;0.50;;
305;SDS011;137;48.578;9.180;2024-02-23T03:05:38;0.90;;;0.50;;
305;SDS011;137;48.578;9.180;2024-02-23T03:08:06;1.00;;;0.53;;
305;SDS011;137;48.578;9.180;2024-02-23T03:10:32;1.60;;;0.57;;
305;SDS011;137;48.578;9.180;2024-02-23T03:12:59;0.97;;;0.57;;
305;SDS011;137;48.578;9.180;2024-02-23T03:15:26;0.90;;;0.50;;
305;SDS011;137;48.578;9.180;2024-02-23T03:17:54;0.90;;;0.50;;
305;SDS011;137;48.578;9.180;2024-02-23T03:20:22;0.90;;;0.50;;
305;SDS011;137;48.578;9.180;2024-02-23T03:22:49;1.00;;;0.50;;
305;SDS011;137;48.578;9.180;2024-02-23T03:25:15;0.90;;;0.50;;
305;SDS011;137;48.578;9.180;2024-02-23T03:27:42;1.13;;;0.60;;
305;SDS011;137;48.578;9.180;2024-02-23T03:30:09;1.00;;;0.50;;
305;SDS011;137;48.578;9.180;2024-02-23T03:32:36;1.00;;;0.53;;
305;SDS011;137;48.578;9.180;2024-02-23T03:35:06;1.20;;;0.70;;
305;SDS011;137;48.578;9.180;2024-02-23T03:37:33;1.20;;;0.70;;
305;SDS011;137;48.578;9.180;2024-02-23T03:40:00;0.97;;;0.50;;
305;SDS011;137;48.578;9.180;2024-02-23T03:42:27;0.90;;;0.50;;
305;SDS011;137;48.578;9.180;2024-02-23T03:44:54;0.90;;;0.50;;
305;SDS011;137;48.578;9.180;2024-02-23T03:47:20;1.30;;;0.60;;
305;SDS011;137;48.578;9.180;2024-02-23T03:49:47;2.70;;;0.83;;
305;SDS011;137;48.578;9.180;2024-02-23T03:52:15;2.30;;;0.60;;
305;SDS011;137;48.578;9.180;2024-02-23T03:54:42;1.40;;;0.60;;
305;SDS011;137;48.578;9.180;2024-02-23T03:57:09;1.10;;;0.70;;
305;SDS011;137;48.578;9.180;2024-02-23T03:59:35;0.90;;;0.60;;
305;SDS011;137;48.578;9.180;2024-02-23T04:02:03;0.90;;;0.50;;
305;SDS011;137;48.578;9.180;2024-02-23T04:04:30;1.60;;;0.70;;
305;SDS011;137;48.578;9.180;2024-02-23T04:06:57;1.23;;;0.60;;
305;SDS011;137;48.578;9.180;2024-02-23T04:09:25;1.23;;;0.60;;
305;SDS011;137;48.578;9.180;2024-02-23T04:11:52;1.10;;;0.60;;
305;SDS011;137;48.578;9.180;2024-02-23T04:14:18;1.90;;;0.70;;
305;SDS011;137;48.578;9.180;2024-02-23T04:16:45;1.93;;;0.60;;
305;SDS011;137;48.578;9.180;2024-02-23T04:19:12;1.10;;;0.60;;
305;SDS011;137;48.578;9.180;2024-02-23T04:21:39;1.30;;;0.60;;
305;SDS011;137;48.578;9.180;2024-02-23T04:24:06;0.90;;;0.50;;
305;SDS011;137;48.578;9.180;2024-02-23T04:26:35;1.20;;;0.70;;
305;SDS011;137;48.578;9.180;2024-02-23T04:29:01;1.00;;;0.60;;
305;SDS011;137;48.578;9.180;2024-02-23T04:31:28;1.40;;;0.80;;
305;SDS011;137;48.578;9.180;2024-02-23T04:33:55;1.50;;;0.90;;
305;SDS011;137;48.578;9.180;2024-02-23T04:36:21;1.10;;;0.60;;
305;SDS011;137;48.578;9.180;2024-02-23T04:38:48;1.53;;;0.80;;
305;SDS011;137;48.578;9.180;2024-02-23T04:41:18;3.13;;;0.60;;
305;SDS011;137;48.578;9.180;2024-02-23T04:43:47;1.63;;;0.70;;
305;SDS011;137;48.578;9.180;2024-02-23T04:46:14;2.97;;;0.60;;
305;SDS011;137;48.578;9.180;2024-02-23T04:48:41;2.57;;;0.70;;
305;SDS011;137;48.578;9.180;2024-02-23T04:51:08;1.20;;;0.73;;
305;SDS011;137;48.578;9.180;2024-02-23T04:53:36;5.20;;;0.80;;
305;SDS011;137;48.578;9.180;2024-02-23T04:56:03;1.53;;;0.50;;
305;SDS011;137;48.578;9.180;2024-02-23T04:58:30;1.30;;;0.70;;
305;SDS011;137;48.578;9.180;2024-02-23T05:00:58;1.00;;;0.63;;
305;SDS011;137;48.578;9.180;2024-02-23T05:03:25;2.17;;;0.60;;
305;SDS011;137;48.578;9.180;2024-02-23T05:05:53;1.80;;;0.90;;
305;SDS011;137;48.578;9.180;2024-02-23T05:08:20;1.00;;;0.60;;
305;SDS011;137;48.578;9.180;2024-02-23T05:10:49;1.00;;;0.60;;
305;SDS011;137;48.578;9.180;2024-02-23T05:13:16;1.40;;;0.77;;
305;SDS011;137;48.578;9.180;2024-02-23T05:15:43;1.00;;;0.67;;
305;SDS011;137;48.578;9.180;2024-02-23T05:18:12;4.27;;;0.80;;
305;SDS011;137;48.578;9.180;2024-02-23T05:20:39;1.00;;;0.50;;
305;SDS011;137;48.578;9.180;2024-02-23T05:23:09;1.30;;;0.63;;
305;SDS011;137;48.578;9.180;2024-02-23T05:25:45;1.00;;;0.70;;
305;SDS011;137;48.578;9.180;2024-02-23T05:28:12;1.30;;;0.93;;
305;SDS011;137;48.578;9.180;2024-02-23T05:30:39;2.47;;;0.90;;
305;SDS011;137;48.578;9.180;2024-02-23T05:33:07;1.20;;;1.00;;
305;SDS011;137;48.578;9.180;2024-02-23T05:35:35;30.17;;;12.47;;
305;SDS011;137;48.578;9.180;2024-02-23T05:38:02;17.23;;;9.27;;
305;SDS011;137;48.578;9.180;2024-02-23T05:40:31;9.23;;;5.07;;
305;SDS011;137;48.578;9.180;2024-02-23T05:42:58;7.63;;;4.13;;
305;SDS011;137;48.578;9.180;2024-02-23T05:45:25;7.30;;;4.00;;
305;SDS011;137;48.578;9.180;2024-02-23T05:47:52;8.90;;;4.23;;
305;SDS011;137;48.578;9.180;2024-02-23T05:50:19;2.10;;;1.80;;
305;SDS011;137;48.578;9.180;2024-02-23T05:52:48;3.43;;;2.17;;
305;SDS011;137;48.578;9.180;2024-02-23T05:55:15;3.80;;;1.17;;
305;SDS011;137;48.578;9.180;2024-02-23T05:57:41;2.00;;;1.00;;
305;SDS011;137;48.578;9.180;2024-02-23T06:00:09;2.40;;;1.17;;
305;SDS011;137;48.578;9.180;2024-02-23T06:02:36;2.83;;;1.23;;
305;SDS011;137;48.578;9.180;2024-02-23T06:05:04;2.00;;;1.23;;
305;SDS011;137;48.578;9.180;2024-02-23T06:07:32;2.70;;;1.37;;
305;SDS011;137;48.578;9.180;2024-02-23T06:10:04;1.63;;;1.20;;
305;SDS011;137;48.578;9.180;2024-02-23T06:12:31;2.20;;;1.10;;
305;SDS011;137;48.578;9.180;2024-02-23T06:15:01;2.53;;;1.50;;
305;SDS011;137;48.578;9.180;2024-02-23T06:17:28;1.90;;;1.00;;
305;SDS011;137;48.578;9.180;2024-02-23T06:19:55;2.63;;;1.20;;
305;SDS011;137;48.578;9.180;2024-02-23T06:22:24;4.37;;;1.20;;
305;SDS011;137;48.578;9.180;2024-02-23T06:24:50;1.63;;;1.27;;
305;SDS011;137;48.578;9.180;2024-02-23T06:27:19;2.67;;;1.20;;
305;SDS011;137;48.578;9.180;2024-02-23T06:29:47;6.80;;;1.40;;
305;SDS011;137;48.578;9.180;2024-02-23T06:32:14;1.73;;;1.00;;
305;SDS011;137;48.578;9.180;2024-02-23T06:34:41;1.77;;;0.90;;
305;SDS011;137;48.578;9.180;2024-02-23T06:37:08;4.50;;;2.10;;
305;SDS011;137;48.578;9.180;2024-02-23T06:39:34;4.00;;;1.10;;
305;SDS011;137;48.578;9.180;2024-02-23T06:42:02;2.33;;;1.30;;
305;SDS011;137;48.578;9.180;2024-02-23T06:44:31;2.50;;;1.20;;
305;SDS011;137;48.578;9.180;2024-02-23T06:46:58;1.40;;;1.10;;
305;SDS011;137;48.578;9.180;2024-02-23T06:49:25;3.53;;;1.30;;
305;SDS011;137;48.578;9.180;2024-02-23T06:51:52;2.50;;;0.90;;
305;SDS011;137;48.578;9.180;2024-02-23T06:54:19;1.40;;;1.00;;
305;SDS011;137;48.578;9.180;2024-02-23T06:56:45;2.07;;;0.90;;
305;SDS011;137;48.578;9.180;2024-02-23T06:59:12;1.93;;;0.70;;
305;SDS011;137;48.578;9.180;2024-02-23T07:01:49;4.70;;;0.90;;
305;SDS011;137;48.578;9.180;2024-02-23T07:04:16;1.00;;;0.77;;
305;SDS011;137;48.578;9.180;2024-02-23T07:06:43;1.33;;;0.90;;
305;SDS011;137;48.578;9.180;2024-02-23T07:09:10;1.80;;;1.13;;
305;SDS011;137;48.578;9.180;2024-02-23T07:11:37;1.33;;;0.90;;
305;SDS011;137;48.578;9.180;2024-02-23T07:14:04;2.60;;;0.90;;
305;SDS011;137;48.578;9.180;2024-02-23T07:16:31;1.10;;;0.70;;
305;SDS011;137;48.578;9.180;2024-02-23T07:18:59;1.93;;;1.10;;
305;SDS011;137;48.578;9.180;2024-02-23T07:21:26;1.07;;;0.70;;
305;SDS011;137;48.578;9.180;2024-02-23T07:23:53;2.03;;;0.77;;
305;SDS011;137;48.578;9.180;2024-02-23T07:26:19;2.00;;;0.73;;
305;SDS011;137;48.578;9.180;2024-02-23T07:28:48;1.90;;;0.90;;
305;SDS011;137;48.578;9.180;2024-02-23T07:31:21;4.80;;;1.10;;
305;SDS011;137;48.578;9.180;2024-02-23T07:33:52;2.50;;;1.10;;
305;SDS011;137;48.578;9.180;2024-02-23T07:36:20;2.00;;;0.90;;
305;SDS011;137;48.578;9.180;2024-02-23T07:38:47;2.13;;;1.00;;
305;SDS011;137;48.578;9.180;2024-02-23T07:41:14;1.10;;;0.80;;
305;SDS011;137;48.578;9.180;2024-02-23T07:43:42;5.33;;;1.17;;
305;SDS011;137;48.578;9.180;2024-02-23T07:46:09;1.77;;;1.20;;
305;SDS011;137;48.578;9.180;2024-02-23T07:48:36;1.20;;;0.80;;
305;SDS011;137;48.578;9.180;2024-02-23T07:51:04;1.97;;;0.90;;
305;SDS011;137;48.578;9.180;2024-02-23T07:53:32;2.20;;;0.90;;
305;SDS011;137;48.578;9.180;2024-02-23T07:56:00;1.50;;;0.80;;
305;SDS011;137;48.578;9.180;2024-02-23T07:58:28;1.40;;;0.90;;
305;SDS011;137;48.578;9.180;2024-02-23T08:00:55;3.90;;;1.20;;
305;SDS011;137;48.578;9.180;2024-02-23T08:03:22;2.03;;;1.13;;
305;SDS011;137;48.578;9.180;2024-02-23T08:05:48;2.90;;;1.60;;
305;SDS011;137;48.578;9.180;2024-02-23T08:08:15;1.47;;;0.70;;
305;SDS011;137;48.578;9.180;2024-02-23T08:10:43;1.70;;;1.07;;
305;SDS011;137;48.578;9.180;2024-02-23T08:13:10;2.43;;;1.27;;
305;SDS011;137;48.578;9.180;2024-02-23T08:15:37;5.63;;;2.13;;
305;SDS011;137;48.578;9.180;2024-02-23T08:18:04;1.87;;;0.97;;
305;SDS011;137;48.578;9.180;2024-02-23T08:20:31;1.37;;;0.77;;
305;SDS011;137;48.578;9.180;2024-02-23T08:22:58;1.10;;;0.80;;
305;SDS011;137;48.578;9.180;2024-02-23T08:25:25;26.67;;;2.07;;
305;SDS011;137;48.578;9.180;2024-02-23T08:27:55;2.70;;;0.93;;
305;SDS011;137;48.578;9.180;2024-02-23T08:30:22;3.87;;;3.30;;
305;SDS011;137;48.578;9.180;2024-02-23T08:32:49;3.97;;;2.10;;
305;SDS011;137;48.578;9.180;2024-02-23T08:35:16;2.83;;;1.90;;
305;SDS011;137;48.578;9.180;2024-02-23T08:37:43;5.73;;;2.90;;
305;SDS011;137;48.578;9.180;2024-02-23T08:40:10;5.27;;;3.10;;
305;SDS011;137;48.578;9.180;2024-02-23T08:42:38;5.17;;;2.03;;
305;SDS011;137;48.578;9.180;2024-02-23T08:45:06;3.03;;;1.40;;
305;SDS011;137;48.578;9.180;2024-02-23T08:47:34;1.80;;;1.00;;
305;SDS011;137;48.578;9.180;2024-02-23T08:50:01;1.40;;;1.00;;
305;SDS011;137;48.578;9.180;2024-02-23T08:52:29;1.70;;;1.07;;
305;SDS011;137;48.578;9.180;2024-02-23T08:54:56;2.07;;;1.20;;
305;SDS011;137;48.578;9.180;2024-02-23T08:57:23;3.70;;;1.30;;
305;SDS011;137;48.578;9.180;2024-02-23T08:59:49;1.40;;;0.90;;
305;SDS011;137;48.578;9.180;2024-02-23T09:02:18;1.90;;;1.00;;
305;SDS011;137;48.578;9.180;2024-02-23T09:04:45;5.30;;;1.53;;
305;SDS011;137;48.578;9.180;2024-02-23T09:07:12;1.63;;;1.10;;
305;SDS011;137;48.578;9.180;2024-02-23T09:09:39;3.17;;;1.33;;
305;SDS011;137;48.578;9.180;2024-02-23T09:12:06;1.70;;;1.52;;
305;SDS011;137;48.578;9.180;2024-02-23T09:14:35;1.83;;;1.27;;
305;SDS011;137;48.578;9.180;2024-02-23T09:17:02;3.50;;;1.07;;
305;SDS011;137;48.578;9.180;2024-02-23T09:19:32;2.07;;;1.50;;
305;SDS011;137;48.578;9.180;2024-02-23T09:21:59;1.60;;;1.00;;
305;SDS011;137;48.578;9.180;2024-02-23T09:24:26;6.57;;;1.40;;
305;SDS011;137;48.578;9.180;2024-02-23T09:26:53;5.00;;;2.03;;
305;SDS011;137;48.578;9.180;2024-02-23T09:29:20;7.93;;;1.90;;
305;SDS011;137;48.578;9.180;2024-02-23T09:31:47;8.70;;;2.10;;
305;SDS011;137;48.578;9.180;2024-02-23T09:34:14;2.90;;;1.03;;
305;SDS011;137;48.578;9.180;2024-02-23T09:36:42;2.03;;;1.13;;
305;SDS011;137;48.578;9.180;2024-02-23T09:39:09;2.00;;;1.20;;
305;SDS011;137;48.578;9.180;2024-02-23T09:41:36;1.80;;;1.20;;
305;SDS011;137;48.578;9.180;2024-02-23T09:44:05;2.17;;;0.90;;
305;SDS011;137;48.578;9.180;2024-02-23T09:46:34;2.30;;;1.60;;
305;SDS011;137;48.578;9.180;2024-02-23T09:49:03;2.70;;;1.00;;
305;SDS011;137;48.578;9.180;2024-02-23T09:51:31;6.80;;;1.50;;
305;SDS011;137;48.578;9.180;2024-02-23T09:54:01;5.23;;;1.33;;
305;SDS011;137;48.578;9.180;2024-02-23T09:56:28;4.17;;;1.10;;
305;SDS011;137;48.578;9.180;2024-02-23T09:58:56;5.60;;;1.10;;
305;SDS011;137;48.578;9.180;2024-02-23T10:01:27;3.73;;;1.10;;
305;SDS011;137;48.578;9.180;2024-02-23T10:03:56;1.57;;;1.00;;
305;SDS011;137;48.578;9.180;2024-02-23T10:06:24;2.33;;;1.10;;
305;SDS011;137;48.578;9.180;2024-02-23T10:08:51;3.27;;;1.30;;
305;SDS011;137;48.578;9.180;2024-02-23T10:11:20;3.17;;;1.40;;
305;SDS011;137;48.578;9.180;2024-02-23T10:13:47;3.57;;;1.13;;
305;SDS011;137;48.578;9.180;2024-02-23T10:16:15;2.07;;;1.10;;
305;SDS011;137;48.578;9.180;2024-02-23T10:18:42;6.67;;;1.00;;
305;SDS011;137;48.578;9.180;2024-02-23T10:21:09;4.83;;;1.23;;
305;SDS011;137;48.578;9.180;2024-02-23T10:23:37;1.80;;;1.10;;
305;SDS011;137;48.578;9.180;2024-02-23T10:26:04;4.03;;;1.07;;
305;SDS011;137;48.578;9.180;2024-02-23T10:28:32;3.90;;;1.40;;
305;SDS011;137;48.578;9.180;2024-02-23T10:31:00;3.60;;;1.27;;
305;SDS011;137;48.578;9.180;2024-02-23T10:33:27;3.47;;;0.90;;
305;SDS011;137;48.578;9.180;2024-02-23T10:35:55;2.13;;;1.23;;
305;SDS011;137;48.578;9.180;2024-02-23T10:38:23;1.73;;;1.00;;
305;SDS011;137;48.578;9.180;2024-02-23T10:40:51;5.30;;;1.67;;
305;SDS011;137;48.578;9.180;2024-02-23T10:43:21;1.70;;;0.90;;
305;SDS011;137;48.578;9.180;2024-02-23T10:45:57;2.67;;;0.90;;
305;SDS011;137;48.578;9.180;2024-02-23T10:48:27;1.70;;;1.10;;
305;SDS011;137;48.578;9.180;2024-02-23T10:50:55;3.40;;;1.17;;
305;SDS011;137;48.578;9.180;2024-02-23T10:53:23;2.77;;;1.10;;
305;SDS011;137;48.578;9.180;2024-02-23T10:55:51;5.73;;;1.67;;
305;SDS011;137;48.578;9.180;2024-02-23T10:58:22;2.50;;;1.07;;
305;SDS011;137;48.578;9.180;2024-02-23T11:00:49;2.90;;;1.00;;
305;SDS011;137;48.578;9.180;2024-02-23T11:03:17;2.80;;;1.20;;
305;SDS011;137;48.578;9.180;2024-02-23T11:05:47;3.00;;;1.20;;
305;SDS011;137;48.578;9.180;2024-02-23T11:08:14;5.07;;;1.27;;
305;SDS011;137;48.578;9.180;2024-02-23T11:10:50;1.97;;;1.10;;
305;SDS011;137;48.578;9.180;2024-02-23T11:13:29;4.27;;;1.00;;
305;SDS011;137;48.578;9.180;2024-02-23T11:16:01;4.37;;;1.00;;
305;SDS011;137;48.578;9.180;2024-02-23T11:18:29;2.13;;;0.90;;
305;SDS011;137;48.578;9.180;2024-02-23T11:20:58;2.60;;;1.30;;
305;SDS011;137;48.578;9.180;2024-02-23T11:23:26;1.47;;;0.90;;
305;SDS011;137;48.578;9.180;2024-02-23T11:26:04;1.50;;;0.90;;
305;SDS011;137;48.578;9.180;2024-02-23T11:28:31;3.63;;;1.17;;
305;SDS011;137;48.578;9.180;2024-02-23T11:30:58;3.17;;;1.23;;
305;SDS011;137;48.578;9.180;2024-02-23T11:33:27;4.33;;;1.10;;
305;SDS011;137;48.578;9.180;2024-02-23T11:36:06;2.53;;;1.20;;
305;SDS011;137;48.578;9.180;2024-02-23T11:38:34;3.10;;;1.23;;
305;SDS011;137;48.578;9.180;2024-02-23T11:41:01;3.90;;;1.03;;
305;SDS011;137;48.578;9.180;2024-02-23T11:43:29;3.40;;;1.47;;
305;SDS011;137;48.578;9.180;2024-02-23T11:45:55;1.93;;;0.97;;
305;SDS011;137;48.578;9.180;2024-02-23T11:48:22;2.03;;;1.00;;
305;SDS011;137;48.578;9.180;2024-02-23T11:50:51;4.73;;;1.20;;
305;SDS011;137;48.578;9.180;2024-02-23T11:53:18;2.40;;;0.80;;
305;SDS011;137;48.578;9.180;2024-02-23T11:55:47;2.70;;;0.90;;
305;SDS011;137;48.578;9.180;2024-02-23T11:58:15;2.43;;;2.10;;
305;SDS011;137;48.578;9.180;2024-02-23T12:00:41;2.23;;;1.63;;
305;SDS011;137;48.578;9.180;2024-02-23T12:03:08;3.57;;;1.93;;
305;SDS011;137;48.578;9.180;2024-02-23T12:05:36;3.47;;;1.33;;
305;SDS011;137;48.578;9.180;2024-02-23T12:08:04;1.90;;;0.90;;
305;SDS011;137;48.578;9.180;2024-02-23T12:10:31;3.70;;;1.10;;
305;SDS011;137;48.578;9.180;2024-02-23T12:12:58;5.00;;;1.00;;
305;SDS011;137;48.578;9.180;2024-02-23T12:15:25;3.27;;;0.97;;
305;SDS011;137;48.578;9.180;2024-02-23T12:17:53;2.87;;;1.10;;
305;SDS011;137;48.578;9.180;2024-02-23T12:20:23;3.67;;;1.20;;
305;SDS011;137;48.578;9.180;2024-02-23T12:22:50;4.83;;;1.30;;
305;SDS011;137;48.578;9.180;2024-02-23T12:25:22;2.50;;;1.37;;
305;SDS011;137;48.578;9.180;2024-02-23T12:27:53;3.17;;;1.37;;
305;SDS011;137;48.578;9.180;2024-02-23T12:30:20;3.23;;;1.23;;
305;SDS011;137;48.578;9.180;2024-02-23T12:32:47;3.83;;;1.47;;
305;SDS011;137;48.578;9.180;2024-02-23T12:35:14;5.50;;;1.57;;
305;SDS011;137;48.578;9.180;2024-02-23T12:37:42;6.50;;;1.57;;
305;SDS011;137;48.578;9.180;2024-02-23T12:40:10;1.93;;;1.30;;
305;SDS011;137;48.578;9.180;2024-02-23T12:42:39;2.77;;;1.47;;
305;SDS011;137;48.578;9.180;2024-02-23T12:45:06;6.00;;;1.40;;
305;SDS011;137;48.578;9.180;2024-02-23T12:47:33;2.10;;;1.40;;
305;SDS011;137;48.578;9.180;2024-02-23T12:50:00;3.40;;;1.50;;
305;SDS011;137;48.578;9.180;2024-02-23T12:52:26;4.10;;;2.60;;
305;SDS011;137;48.578;9.180;2024-02-23T12:54:53;1.93;;;1.20;;
305;SDS011;137;48.578;9.180;2024-02-23T12:57:20;2.47;;;1.20;;
305;SDS011;137;48.578;9.180;2024-02-23T12:59:48;6.73;;;2.70;;
305;SDS011;137;48.578;9.180;2024-02-23T13:02:15;8.27;;;5.80;;
305;SDS011;137;48.578;9.180;2024-02-23T13:04:42;4.50;;;1.90;;
305;SDS011;137;48.578;9.180;2024-02-23T13:07:13;6.00;;;2.93;;
305;SDS011;137;48.578;9.180;2024-02-23T13:09:40;2.97;;;1.40;;
305;SDS011;137;48.578;9.180;2024-02-23T13:12:08;5.23;;;1.40;;
305;SDS011;137;48.578;9.180;2024-02-23T13:14:34;1.83;;;1.13;;
305;SDS011;137;48.578;9.180;2024-02-23T13:17:02;4.63;;;1.30;;
305;SDS011;137;48.578;9.180;2024-02-23T13:19:29;4.80;;;1.10;;
305;SDS011;137;48.578;9.180;2024-02-23T13:21:56;2.33;;;0.97;;
305;SDS011;137;48.578;9.180;2024-02-23T13:24:25;2.87;;;1.30;;
305;SDS011;137;48.578;9.180;2024-02-23T13:26:52;5.30;;;2.33;;
305;SDS011;137;48.578;9.180;2024-02-23T13:29:18;4.73;;;1.83;;
305;SDS011;137;48.578;9.180;2024-02-23T13:31:45;5.80;;;1.70;;
305;SDS011;137;48.578;9.180;2024-02-23T13:34:13;3.83;;;1.30;;
305;SDS011;137;48.578;9.180;2024-02-23T13:36:41;4.70;;;1.50;;
305;SDS011;137;48.578;9.180;2024-02-23T13:39:08;2.57;;;1.80;;
305;SDS011;137;48.578;9.180;2024-02-23T13:41:35;3.13;;;1.57;;
305;SDS011;137;48.578;9.180;2024-02-23T13:44:03;4.20;;;1.60;;
305;SDS011;137;48.578;9.180;2024-02-23T13:46:30;2.40;;;1.60;;
305;SDS011;137;48.578;9.180;2024-02-23T13:49:03;4.37;;;1.73;;
305;SDS011;137;48.578;9.180;2024-02-23T13:51:33;3.00;;;1.20;;
305;SDS011;137;48.578;9.180;2024-02-23T13:53:59;4.10;;;1.10;;
305;SDS011;137;48.578;9.180;2024-02-23T13:56:26;7.03;;;1.70;;
305;SDS011;137;48.578;9.180;2024-02-23T13:58:53;4.47;;;1.50;;
305;SDS011;137;48.578;9.180;2024-02-23T14:01:20;2.07;;;1.30;;
305;SDS011;137;48.578;9.180;2024-02-23T14:03:46;4.10;;;2.40;;
305;SDS011;137;48.578;9.180;2024-02-23T14:06:13;3.10;;;1.30;;
305;SDS011;137;48.578;9.180;2024-02-23T14:08:41;1.97;;;1.00;;
305;SDS011;137;48.578;9.180;2024-02-23T14:11:09;3.90;;;1.80;;
305;SDS011;137;48.578;9.180;2024-02-23T14:13:36;3.93;;;1.33;;
305;SDS011;137;48.578;9.180;2024-02-23T14:16:03;3.70;;;1.37;;
305;SDS011;137;48.578;9.180;2024-02-23T14:18:30;2.70;;;1.17;;
305;SDS011;137;48.578;9.180;2024-02-23T14:21:01;3.93;;;1.70;;
305;SDS011;137;48.578;9.180;2024-02-23T14:23:28;2.43;;;1.10;;
305;SDS011;137;48.578;9.180;2024-02-23T14:25:56;3.00;;;1.30;;
305;SDS011;137;48.578;9.180;2024-02-23T14:28:23;2.00;;;1.37;;
305;SDS011;137;48.578;9.180;2024-02-23T14:30:50;1.77;;;1.47;;
305;SDS011;137;48.578;9.180;2024-02-23T14:33:17;4.73;;;1.60;;
305;SDS011;137;48.578;9.180;2024-02-23T14:35:45;2.43;;;1.30;;
305;SDS011;137;48.578;9.180;2024-02-23T14:38:12;1.93;;;1.30;;
305;SDS011;137;48.578;9.180;2024-02-23T14:40:39;4.10;;;1.53;;
305;SDS011;137;48.578;9.180;2024-02-23T14:43:07;2.03;;;1.17;;
305;SDS011;137;48.578;9.180;2024-02-23T14:45:34;2.60;;;1.43;;
305;SDS011;137;48.578;9.180;2024-02-23T14:48:01;1.40;;;0.90;;
305;SDS011;137;48.578;9.180;2024-02-23T14:50:28;2.50;;;0.90;;
305;SDS011;137;48.578;9.180;2024-02-23T14:52:55;3.27;;;1.50;;
305;SDS011;137;48.578;9.180;2024-02-23T14:55:22;5.37;;;1.60;;
305;SDS011;137;48.578;9.180;2024-02-23T14:57:48;5.30;;;1.60;;
305;SDS011;137;48.578;9.180;2024-02-23T15:00:17;3.60;;;1.20;;
305;SDS011;137;48.578;9.180;2024-02-23T15:02:44;3.60;;;1.03;;
305;SDS011;137;48.578;9.180;2024-02-23T15:05:11;2.27;;;1.57;;
305;SDS011;137;48.578;9.180;2024-02-23T15:07:38;5.07;;;1.20;;
305;SDS011;137;48.578;9.180;2024-02-23T15:10:05;2.70;;;1.27;;
305;SDS011;137;48.578;9.180;2024-02-23T15:12:34;1.63;;;1.10;;
305;SDS011;137;48.578;9.180;2024-02-23T15:15:01;3.10;;;1.20;;
305;SDS011;137;48.578;9.180;2024-02-23T15:17:30;5.20;;;1.40;;
305;SDS011;137;48.578;9.180;2024-02-23T15:19:57;2.87;;;1.37;;
305;SDS011;137;48.578;9.180;2024-02-23T15:22:24;6.27;;;2.30;;
305;SDS011;137;48.578;9.180;2024-02-23T15:24:51;5.13;;;1.20;;
305;SDS011;137;48.578;9.180;2024-02-23T15:27:18;2.30;;;1.10;;
305;SDS011;137;48.578;9.180;2024-02-23T15:29:45;2.33;;;1.20;;
305;SDS011;137;48.578;9.180;2024-02-23T15:32:12;2.90;;;1.40;;
305;SDS011;137;48.578;9.180;2024-02-23T15:34:41;3.37;;;1.10;;
305;SDS011;137;48.578;9.180;2024-02-23T15:37:07;3.47;;;1.40;;
305;SDS011;137;48.578;9.180;2024-02-23T15:39:42;1.90;;;1.20;;
305;SDS011;137;48.578;9.180;2024-02-23T15:42:10;3.60;;;2.00;;
305;SDS011;137;48.578;9.180;2024-02-23T15:44:38;1.30;;;1.00;;
305;SDS011;137;48.578;9.180;2024-02-23T15:47:05;3.80;;;1.40;;
305;SDS011;137;48.578;9.180;2024-02-23T15:49:32;4.10;;;1.20;;